Time;durP1;ratioP1;P1;durP2;ratioP2;P2;SDS_P1;SDS_P2;PMS_P1;PMS_P2;Temp;Humidity;BMP_temperature;BMP_pressure;BME280_temperature;BME280_humidity;BME280_pressure;Samples;Min_cycle;Max_cycle;Signal;HPM_P1;HPM_P2
2022/07/08 00:00:07;;;;;;;9.17;3.40;;;;;;;;;;4957030;29;20479;-63
2022/07/08 00:02:34;;;;;;;6.40;2.53;;;;;;;;;;4957206;29;20926;-64
2022/07/08 00:05:01;;;;;;;5.83;2.23;;;;;;;;;;4957027;29;20459;-63
2022/07/08 00:07:28;;;;;;;4.80;2.37;;;;;;;;;;4956676;29;20458;-63
2022/07/08 00:09:55;;;;;;;5.77;2.40;;;;;;;;;;4956923;29;20787;-63
2022/07/08 00:12:24;;;;;;;11.57;3.03;;;;;;;;;;4957013;29;20797;-64
2022/07/08 00:14:51;;;;;;;13.60;3.40;;;;;;;;;;4956568;28;20570;-64
2022/07/08 00:17:18;;;;;;;11.60;3.00;;;;;;;;;;4956474;29;20497;-63
2022/07/08 00:19:46;;;;;;;7.63;2.70;;;;;;;;;;4956414;29;20515;-64
2022/07/08 00:22:13;;;;;;;5.67;2.30;;;;;;;;;;4956885;29;20448;-63
2022/07/08 00:24:40;;;;;;;7.93;2.83;;;;;;;;;;4956710;29;20466;-64
2022/07/08 00:27:07;;;;;;;3.90;2.20;;;;;;;;;;4956912;29;20451;-64
2022/07/08 00:29:36;;;;;;;10.83;1.97;;;;;;;;;;4956195;29;20543;-63
2022/07/08 00:32:04;;;;;;;7.77;2.83;;;;;;;;;;4956280;29;20918;-63
2022/07/08 00:34:31;;;;;;;5.87;2.33;;;;;;;;;;4956155;29;20479;-64
2022/07/08 00:36:58;;;;;;;11.20;2.90;;;;;;;;;;4956602;29;20941;-63
2022/07/08 00:39:25;;;;;;;3.67;2.33;;;;;;;;;;4956617;29;20550;-64
2022/07/08 00:41:53;;;;;;;10.47;2.80;;;;;;;;;;4956719;29;20449;-65
2022/07/08 00:44:20;;;;;;;5.73;2.47;;;;;;;;;;4956171;29;20953;-63
2022/07/08 00:46:49;;;;;;;7.30;2.50;;;;;;;;;;4956236;29;20533;-64
2022/07/08 00:49:16;;;;;;;5.70;2.80;;;;;;;;;;4956354;29;20442;-64
2022/07/08 00:51:43;;;;;;;10.13;2.23;;;;;;;;;;4956732;29;20519;-64
2022/07/08 00:54:14;;;;;;;4.50;2.50;;;;;;;;;;4955699;29;21070;-64
2022/07/08 00:56:41;;;;;;;5.97;3.03;;;;;;;;;;4955878;29;20489;-63
2022/07/08 00:59:09;;;;;;;15.60;2.53;;;;;;;;;;4955801;29;20465;-63
2022/07/08 01:01:36;;;;;;;6.87;2.70;;;;;;;;;;4956085;29;20456;-64
2022/07/08 01:04:05;;;;;;;6.23;1.73;;;;;;;;;;4955674;29;20455;-64
2022/07/08 01:06:33;;;;;;;10.47;3.00;;;;;;;;;;4956017;29;20480;-64
2022/07/08 01:09:01;;;;;;;6.63;2.33;;;;;;;;;;4956155;29;20449;-64
2022/07/08 01:11:28;;;;;;;4.00;2.20;;;;;;;;;;4955847;29;20484;-64
2022/07/08 01:13:56;;;;;;;5.43;2.60;;;;;;;;;;4955759;29;20487;-64
2022/07/08 01:16:23;;;;;;;7.23;2.13;;;;;;;;;;4955869;29;20873;-64
2022/07/08 01:18:50;;;;;;;8.33;2.90;;;;;;;;;;4955736;29;20458;-64
2022/07/08 01:21:19;;;;;;;5.07;2.47;;;;;;;;;;4955680;29;20446;-64
2022/07/08 01:23:46;;;;;;;7.47;2.50;;;;;;;;;;4955431;29;20460;-64
2022/07/08 01:26:14;;;;;;;6.50;2.40;;;;;;;;;;4955108;28;20527;-64
2022/07/08 01:28:42;;;;;;;4.40;2.23;;;;;;;;;;4955647;29;20474;-63
2022/07/08 01:31:10;;;;;;;9.47;2.90;;;;;;;;;;4955571;29;20446;-63
2022/07/08 01:33:37;;;;;;;7.03;2.30;;;;;;;;;;4955516;29;20551;-63
2022/07/08 01:36:04;;;;;;;7.80;2.37;;;;;;;;;;4955550;29;20454;-63
2022/07/08 01:38:33;;;;;;;5.63;2.63;;;;;;;;;;4955587;29;20532;-63
2022/07/08 01:41:00;;;;;;;8.43;3.50;;;;;;;;;;4955509;29;20747;-64
2022/07/08 01:43:28;;;;;;;8.20;2.87;;;;;;;;;;4955513;29;20451;-63
2022/07/08 01:45:55;;;;;;;5.50;2.33;;;;;;;;;;4955606;29;20542;-64
2022/07/08 01:48:22;;;;;;;6.83;3.37;;;;;;;;;;4955529;29;20446;-64
2022/07/08 01:50:49;;;;;;;7.67;2.30;;;;;;;;;;4955519;29;20550;-64
2022/07/08 01:53:17;;;;;;;7.60;2.30;;;;;;;;;;4955099;29;20500;-64
2022/07/08 01:55:45;;;;;;;12.10;3.37;;;;;;;;;;4953365;29;20492;-64
2022/07/08 01:58:13;;;;;;;3.23;2.57;;;;;;;;;;4956000;29;20447;-64
2022/07/08 02:00:40;;;;;;;8.13;2.70;;;;;;;;;;4955295;29;20545;-64
2022/07/08 02:03:07;;;;;;;7.33;2.50;;;;;;;;;;4955074;29;20545;-63
2022/07/08 02:05:37;;;;;;;7.00;3.13;;;;;;;;;;4955615;29;20885;-64
2022/07/08 02:08:04;;;;;;;10.10;2.70;;;;;;;;;;4955292;29;20482;-63
2022/07/08 02:12:18;;;;;;;4.67;2.33;;;;;;;;;;4954816;29;20479;-64
2022/07/08 02:13:20;;;;;;;9.03;2.80;;;;;;;;;;4954984;29;20459;-64
2022/07/08 02:15:48;;;;;;;5.83;2.63;;;;;;;;;;4954831;29;20705;-63
2022/07/08 02:18:15;;;;;;;6.50;2.40;;;;;;;;;;4955218;29;20451;-64
2022/07/08 02:20:42;;;;;;;8.80;2.57;;;;;;;;;;4955151;29;20532;-63
2022/07/08 02:23:09;;;;;;;7.47;2.67;;;;;;;;;;4954962;29;20546;-64
2022/07/08 02:25:36;;;;;;;5.23;2.53;;;;;;;;;;4955171;29;20534;-64
2022/07/08 02:28:04;;;;;;;13.20;3.10;;;;;;;;;;4954930;29;20537;-63
2022/07/08 02:30:32;;;;;;;5.73;2.40;;;;;;;;;;4954794;29;20534;-64
2022/07/08 02:32:59;;;;;;;8.63;3.20;;;;;;;;;;4955596;29;20447;-64
2022/07/08 02:35:27;;;;;;;6.23;2.50;;;;;;;;;;4954951;29;20496;-64
2022/07/08 02:37:54;;;;;;;8.80;3.10;;;;;;;;;;4955324;28;20448;-63
2022/07/08 02:40:21;;;;;;;6.50;2.60;;;;;;;;;;4958804;29;20438;-64
2022/07/08 02:42:48;;;;;;;6.70;3.10;;;;;;;;;;4958344;29;20553;-64
2022/07/08 02:45:16;;;;;;;7.43;2.33;;;;;;;;;;4958318;29;21020;-64
2022/07/08 02:47:44;;;;;;;5.87;2.77;;;;;;;;;;4958743;29;20748;-63
2022/07/08 02:50:11;;;;;;;6.47;2.53;;;;;;;;;;4958373;29;20530;-63
2022/07/08 02:52:38;;;;;;;9.13;2.57;;;;;;;;;;4958309;29;20935;-64
2022/07/08 02:55:06;;;;;;;6.80;2.53;;;;;;;;;;4958071;29;20589;-63
2022/07/08 02:57:33;;;;;;;7.67;2.60;;;;;;;;;;4958488;29;20453;-63
2022/07/08 03:00:00;;;;;;;7.97;3.00;;;;;;;;;;4959019;29;20490;-64
2022/07/08 03:02:28;;;;;;;5.90;2.33;;;;;;;;;;4958210;29;20539;-63
2022/07/08 03:04:58;;;;;;;3.73;1.97;;;;;;;;;;4958595;29;20925;-64
2022/07/08 03:07:25;;;;;;;5.70;2.60;;;;;;;;;;4958171;29;20468;-64
2022/07/08 03:09:52;;;;;;;9.03;2.90;;;;;;;;;;4958542;29;20440;-64
2022/07/08 03:12:19;;;;;;;3.00;2.40;;;;;;;;;;4957875;29;20486;-64
2022/07/08 03:14:47;;;;;;;8.10;2.70;;;;;;;;;;4958507;29;20534;-63
2022/07/08 03:17:14;;;;;;;7.07;2.40;;;;;;;;;;4957814;29;20454;-64
2022/07/08 03:19:41;;;;;;;7.00;3.33;;;;;;;;;;4957813;29;20963;-63
2022/07/08 03:22:10;;;;;;;6.90;3.00;;;;;;;;;;4958171;29;20819;-63
2022/07/08 03:24:37;;;;;;;5.93;2.80;;;;;;;;;;4957628;29;20465;-63
2022/07/08 03:27:04;;;;;;;11.83;3.40;;;;;;;;;;4958188;29;20527;-63
2022/07/08 03:29:31;;;;;;;8.30;2.50;;;;;;;;;;4957577;29;20538;-64
2022/07/08 03:31:59;;;;;;;9.23;4.60;;;;;;;;;;4957723;29;20451;-63
2022/07/08 03:34:26;;;;;;;9.70;3.33;;;;;;;;;;4957922;29;20800;-64
2022/07/08 03:36:53;;;;;;;8.03;2.40;;;;;;;;;;4958202;29;20498;-63
2022/07/08 03:39:22;;;;;;;4.33;2.70;;;;;;;;;;4957757;29;20533;-63
2022/07/08 03:41:49;;;;;;;6.80;2.43;;;;;;;;;;4957643;29;20503;-63
2022/07/08 03:44:17;;;;;;;5.40;2.70;;;;;;;;;;4957658;29;20538;-63
2022/07/08 03:46:44;;;;;;;6.20;4.00;;;;;;;;;;4957594;29;20444;-63
2022/07/08 03:49:11;;;;;;;9.70;2.53;;;;;;;;;;4956803;28;21012;-63
2022/07/08 03:51:38;;;;;;;7.37;2.60;;;;;;;;;;4957579;29;20447;-63
2022/07/08 03:54:06;;;;;;;5.87;2.80;;;;;;;;;;4957507;29;20550;-66
2022/07/08 03:56:34;;;;;;;9.07;2.90;;;;;;;;;;4957022;29;20476;-64
2022/07/08 03:59:02;;;;;;;7.53;2.60;;;;;;;;;;4956050;29;20486;-63
2022/07/08 04:01:29;;;;;;;10.07;2.67;;;;;;;;;;4956843;29;20468;-64
2022/07/08 04:03:56;;;;;;;13.77;3.27;;;;;;;;;;4957252;29;20554;-63
2022/07/08 04:06:24;;;;;;;10.60;3.00;;;;;;;;;;4957160;29;20459;-63
2022/07/08 04:08:51;;;;;;;7.13;3.10;;;;;;;;;;4956898;29;20533;-63
2022/07/08 04:11:18;;;;;;;7.67;2.30;;;;;;;;;;4956734;29;20445;-63
2022/07/08 04:13:47;;;;;;;4.77;2.10;;;;;;;;;;4956795;29;20456;-63
2022/07/08 04:16:15;;;;;;;4.50;2.90;;;;;;;;;;4957275;29;20480;-63
2022/07/08 04:18:43;;;;;;;9.10;2.93;;;;;;;;;;4956951;29;20453;-62
2022/07/08 04:21:10;;;;;;;6.60;3.50;;;;;;;;;;4956625;29;20450;-63
2022/07/08 04:23:38;;;;;;;4.00;2.83;;;;;;;;;;4956853;29;20826;-63
2022/07/08 04:26:05;;;;;;;10.00;2.77;;;;;;;;;;4956567;29;20487;-63
2022/07/08 04:28:33;;;;;;;7.80;2.73;;;;;;;;;;4956573;29;20449;-63
2022/07/08 04:31:01;;;;;;;5.07;2.40;;;;;;;;;;4956516;29;20448;-63
2022/07/08 04:33:29;;;;;;;4.83;2.83;;;;;;;;;;4956623;29;20480;-63
2022/07/08 04:35:56;;;;;;;8.80;2.67;;;;;;;;;;4956660;29;20562;-63
2022/07/08 04:38:23;;;;;;;9.10;3.70;;;;;;;;;;4955981;29;20447;-63
2022/07/08 04:40:50;;;;;;;6.07;2.90;;;;;;;;;;4955914;29;20548;-63
2022/07/08 04:43:18;;;;;;;8.70;3.00;;;;;;;;;;4956227;29;20444;-63
2022/07/08 04:45:45;;;;;;;8.73;3.67;;;;;;;;;;4956481;29;20456;-63
2022/07/08 04:48:13;;;;;;;5.90;2.67;;;;;;;;;;4956224;29;20443;-63
2022/07/08 04:50:41;;;;;;;6.50;2.60;;;;;;;;;;4956538;29;20871;-63
2022/07/08 04:53:08;;;;;;;9.20;2.50;;;;;;;;;;4956281;29;20451;-63
2022/07/08 04:55:35;;;;;;;10.40;3.07;;;;;;;;;;4956220;29;20926;-63
2022/07/08 04:58:03;;;;;;;14.60;2.77;;;;;;;;;;4955992;29;20522;-63
2022/07/08 05:00:30;;;;;;;8.03;3.00;;;;;;;;;;4955763;28;20477;-62
2022/07/08 05:02:59;;;;;;;8.63;2.73;;;;;;;;;;4955565;29;20515;-63
2022/07/08 05:05:30;;;;;;;10.80;2.70;;;;;;;;;;4955984;29;20854;-63
2022/07/08 05:08:00;;;;;;;5.60;2.80;;;;;;;;;;4955591;29;20479;-62
2022/07/08 05:10:27;;;;;;;3.90;3.30;;;;;;;;;;4955715;29;20440;-63
2022/07/08 05:12:55;;;;;;;12.53;2.77;;;;;;;;;;4955649;29;20479;-63
2022/07/08 05:15:22;;;;;;;7.03;3.10;;;;;;;;;;4955961;29;20575;-63
2022/07/08 05:17:51;;;;;;;5.10;2.37;;;;;;;;;;4955862;29;20541;-63
2022/07/08 05:20:18;;;;;;;5.40;2.20;;;;;;;;;;4955954;29;20447;-66
2022/07/08 05:22:47;;;;;;;5.70;2.67;;;;;;;;;;4955799;29;20559;-62
2022/07/08 05:25:14;;;;;;;5.00;2.73;;;;;;;;;;4955581;29;20957;-62
2022/07/08 05:27:42;;;;;;;12.17;4.20;;;;;;;;;;4955870;29;20879;-62
2022/07/08 05:30:10;;;;;;;6.07;2.50;;;;;;;;;;4955786;29;20454;-62
2022/07/08 05:32:38;;;;;;;4.43;2.37;;;;;;;;;;4955661;29;20808;-62
2022/07/08 05:35:06;;;;;;;6.53;2.77;;;;;;;;;;4955400;29;20534;-62
2022/07/08 05:37:35;;;;;;;7.97;3.23;;;;;;;;;;4955573;29;20526;-62
2022/07/08 05:40:04;;;;;;;5.40;2.80;;;;;;;;;;4955651;29;20440;-61
2022/07/08 05:42:31;;;;;;;11.67;2.90;;;;;;;;;;4955650;29;20444;-62
2022/07/08 05:44:58;;;;;;;3.17;2.47;;;;;;;;;;4955508;29;20532;-62
2022/07/08 05:47:25;;;;;;;4.60;2.50;;;;;;;;;;4955609;29;20534;-62
2022/07/08 05:49:53;;;;;;;7.57;2.53;;;;;;;;;;4955499;29;20534;-62
2022/07/08 05:52:20;;;;;;;7.40;3.90;;;;;;;;;;4955406;29;20534;-62
2022/07/08 05:54:47;;;;;;;5.63;2.10;;;;;;;;;;4954844;29;20490;-62
2022/07/08 05:57:16;;;;;;;3.60;2.17;;;;;;;;;;4955038;29;20574;-62
2022/07/08 05:59:44;;;;;;;7.37;3.40;;;;;;;;;;4955008;29;20941;-61
2022/07/08 06:02:11;;;;;;;9.17;2.50;;;;;;;;;;4955398;29;20481;-61
2022/07/08 06:04:38;;;;;;;10.50;2.43;;;;;;;;;;4955437;29;20448;-61
2022/07/08 06:07:06;;;;;;;8.03;2.43;;;;;;;;;;4955641;29;20452;-62
2022/07/08 06:09:33;;;;;;;6.20;2.50;;;;;;;;;;4955027;29;20954;-62
2022/07/08 06:12:00;;;;;;;11.43;3.47;;;;;;;;;;4955661;28;20444;-62
2022/07/08 06:14:29;;;;;;;8.97;2.27;;;;;;;;;;4959494;29;20940;-62
2022/07/08 06:16:56;;;;;;;5.43;2.30;;;;;;;;;;4958890;29;20565;-62
2022/07/08 06:19:23;;;;;;;8.57;3.03;;;;;;;;;;4959187;29;20840;-62
2022/07/08 06:21:51;;;;;;;5.67;2.30;;;;;;;;;;4958895;29;20534;-62
2022/07/08 06:24:18;;;;;;;6.63;2.40;;;;;;;;;;4959067;29;20927;-62
2022/07/08 06:26:46;;;;;;;12.07;2.67;;;;;;;;;;4959114;29;20442;-62
2022/07/08 06:29:13;;;;;;;5.57;2.57;;;;;;;;;;4959003;28;20445;-62
2022/07/08 06:31:42;;;;;;;7.47;2.50;;;;;;;;;;4959238;29;20446;-62
2022/07/08 06:34:09;;;;;;;7.63;2.90;;;;;;;;;;4958732;29;20474;-62
2022/07/08 06:36:37;;;;;;;6.73;2.23;;;;;;;;;;4958427;29;20481;-62
2022/07/08 06:39:04;;;;;;;9.17;2.70;;;;;;;;;;4959233;29;20801;-62
2022/07/08 06:41:31;;;;;;;8.10;3.37;;;;;;;;;;4958451;29;20497;-62
2022/07/08 06:43:59;;;;;;;7.20;2.30;;;;;;;;;;4959179;29;20528;-62
2022/07/08 06:46:26;;;;;;;5.33;2.50;;;;;;;;;;4958873;29;20442;-62
2022/07/08 06:48:55;;;;;;;6.93;2.33;;;;;;;;;;4958308;29;21043;-62
2022/07/08 06:51:22;;;;;;;9.93;2.70;;;;;;;;;;4958352;29;20784;-63
2022/07/08 06:56:34;;;;;;;6.33;2.63;;;;;;;;;;4958397;29;20872;-63
2022/07/08 06:59:01;;;;;;;4.40;2.03;;;;;;;;;;4958671;29;20458;-63
2022/07/08 07:01:28;;;;;;;12.17;3.00;;;;;;;;;;4958541;29;20879;-62
2022/07/08 07:03:57;;;;;;;5.10;2.20;;;;;;;;;;4958986;29;20524;-62
2022/07/08 07:06:24;;;;;;;7.50;2.20;;;;;;;;;;4958297;29;20493;-61
2022/07/08 07:08:51;;;;;;;4.23;2.40;;;;;;;;;;4957923;29;20462;-62
2022/07/08 07:11:19;;;;;;;10.50;3.10;;;;;;;;;;4958322;29;20439;-62
2022/07/08 07:13:47;;;;;;;7.30;2.67;;;;;;;;;;4957830;29;20546;-62
2022/07/08 07:16:15;;;;;;;8.93;2.10;;;;;;;;;;4957854;28;20534;-62
2022/07/08 07:18:42;;;;;;;6.33;2.63;;;;;;;;;;4958645;29;20547;-62
2022/07/08 07:21:10;;;;;;;4.80;2.40;;;;;;;;;;4958069;29;20484;-62
2022/07/08 07:23:38;;;;;;;4.63;1.80;;;;;;;;;;4956938;28;20455;-62
2022/07/08 07:26:05;;;;;;;7.80;2.40;;;;;;;;;;4957798;29;20446;-62
2022/07/08 07:28:32;;;;;;;7.90;2.37;;;;;;;;;;4957996;29;20554;-62
2022/07/08 07:30:59;;;;;;;13.70;2.70;;;;;;;;;;4957566;29;20454;-62
2022/07/08 07:33:27;;;;;;;8.90;3.03;;;;;;;;;;4957862;29;20478;-62
2022/07/08 07:35:55;;;;;;;4.20;2.10;;;;;;;;;;4957859;29;20488;-62
2022/07/08 07:38:24;;;;;;;6.53;2.30;;;;;;;;;;4957895;29;20461;-62
2022/07/08 07:40:51;;;;;;;7.80;2.40;;;;;;;;;;4957768;29;20853;-62
2022/07/08 07:43:19;;;;;;;11.20;2.80;;;;;;;;;;4958033;29;20539;-62
2022/07/08 07:45:46;;;;;;;7.57;1.90;;;;;;;;;;4957857;29;20468;-62
2022/07/08 07:48:13;;;;;;;13.77;2.60;;;;;;;;;;4957614;29;20444;-62
2022/07/08 07:50:40;;;;;;;6.63;2.57;;;;;;;;;;4957528;29;20444;-62
2022/07/08 07:53:07;;;;;;;9.17;2.90;;;;;;;;;;4958083;29;20853;-62
2022/07/08 07:55:36;;;;;;;8.37;2.20;;;;;;;;;;4957448;29;20472;-62
2022/07/08 07:58:03;;;;;;;7.17;2.20;;;;;;;;;;4957132;29;20536;-62
2022/07/08 08:00:30;;;;;;;7.20;2.30;;;;;;;;;;4957329;29;20501;-62
2022/07/08 08:02:58;;;;;;;11.60;2.47;;;;;;;;;;4957307;29;20448;-62
2022/07/08 08:05:25;;;;;;;6.60;2.70;;;;;;;;;;4956948;29;20961;-62
2022/07/08 08:07:52;;;;;;;3.83;2.50;;;;;;;;;;4956948;29;20529;-63
2022/07/08 08:10:20;;;;;;;6.13;2.57;;;;;;;;;;4956782;29;20930;-62
2022/07/08 08:12:48;;;;;;;6.40;2.73;;;;;;;;;;4938741;29;20526;-62
2022/07/08 08:15:16;;;;;;;8.57;2.00;;;;;;;;;;4937965;29;20483;-61
2022/07/08 08:17:44;;;;;;;8.80;3.00;;;;;;;;;;4938090;29;20835;-63
2022/07/08 08:20:12;;;;;;;5.00;2.00;;;;;;;;;;4937805;29;20458;-62
2022/07/08 08:22:39;;;;;;;11.23;2.60;;;;;;;;;;4937499;29;20543;-63
2022/07/08 08:25:07;;;;;;;5.57;2.07;;;;;;;;;;4937964;29;20495;-63
2022/07/08 08:27:34;;;;;;;3.70;1.90;;;;;;;;;;4938100;29;20539;-62
2022/07/08 08:30:02;;;;;;;7.60;2.07;;;;;;;;;;4937349;29;20930;-62
2022/07/08 08:32:30;;;;;;;7.67;2.10;;;;;;;;;;4937680;29;20498;-62
2022/07/08 08:34:57;;;;;;;5.20;2.30;;;;;;;;;;4937495;29;20443;-63
2022/07/08 08:37:26;;;;;;;7.67;2.00;;;;;;;;;;4937528;29;20522;-62
2022/07/08 08:39:53;;;;;;;4.57;1.60;;;;;;;;;;4937508;29;20449;-62
2022/07/08 08:42:21;;;;;;;7.23;2.53;;;;;;;;;;4937436;29;20475;-62
2022/07/08 08:44:49;;;;;;;5.73;2.43;;;;;;;;;;4937177;29;20456;-62
2022/07/08 08:47:18;;;;;;;2.77;1.73;;;;;;;;;;4937063;29;20462;-62
2022/07/08 08:49:46;;;;;;;3.80;2.27;;;;;;;;;;4937535;29;20449;-62
2022/07/08 08:52:17;;;;;;;6.43;2.73;;;;;;;;;;4937254;29;20531;-61
2022/07/08 08:54:45;;;;;;;7.90;2.27;;;;;;;;;;4937212;29;20478;-61
2022/07/08 08:57:12;;;;;;;10.80;2.30;;;;;;;;;;4936911;29;20493;-62
2022/07/08 08:59:40;;;;;;;6.73;2.27;;;;;;;;;;4937571;29;20958;-62
2022/07/08 09:02:09;;;;;;;6.53;2.30;;;;;;;;;;4936922;29;20539;-61
2022/07/08 09:04:38;;;;;;;3.83;2.13;;;;;;;;;;4937059;29;20536;-61
2022/07/08 09:07:06;;;;;;;6.17;2.00;;;;;;;;;;4936709;29;20542;-62
2022/07/08 09:09:33;;;;;;;7.73;1.83;;;;;;;;;;4936947;29;20449;-62
2022/07/08 09:12:15;;;;;;;5.17;2.13;;;;;;;;;;4936910;29;20772;-62
2022/07/08 09:14:50;;;;;;;8.60;2.83;;;;;;;;;;4936916;29;20456;-62
2022/07/08 09:17:17;;;;;;;10.13;2.73;;;;;;;;;;4936942;29;20515;-61
2022/07/08 09:19:48;;;;;;;4.70;2.17;;;;;;;;;;4936845;29;20812;-62
2022/07/08 09:22:15;;;;;;;9.27;2.57;;;;;;;;;;4936961;29;20458;-62
2022/07/08 09:24:43;;;;;;;7.43;2.20;;;;;;;;;;4936399;29;20549;-62
2022/07/08 09:27:11;;;;;;;6.53;2.33;;;;;;;;;;4936686;29;20531;-61
2022/07/08 09:29:40;;;;;;;4.40;2.20;;;;;;;;;;4937037;29;20544;-62
2022/07/08 09:32:11;;;;;;;8.70;2.97;;;;;;;;;;4936619;29;20457;-62
2022/07/08 09:34:38;;;;;;;5.63;2.63;;;;;;;;;;4936932;29;20806;-62
2022/07/08 09:37:12;;;;;;;7.97;2.20;;;;;;;;;;4936785;29;21097;-62
2022/07/08 09:39:40;;;;;;;5.63;2.17;;;;;;;;;;4936658;29;20437;-62
2022/07/08 09:42:08;;;;;;;3.70;2.37;;;;;;;;;;4936527;29;20594;-61
2022/07/08 09:44:35;;;;;;;3.07;2.30;;;;;;;;;;4936426;29;20456;-61
2022/07/08 09:47:09;;;;;;;5.20;2.33;;;;;;;;;;4936157;29;20896;-61
2022/07/08 09:49:36;;;;;;;5.93;2.60;;;;;;;;;;4936944;29;20434;-61
2022/07/08 09:52:04;;;;;;;6.07;2.30;;;;;;;;;;4936034;29;20449;-61
2022/07/08 09:54:33;;;;;;;6.43;2.10;;;;;;;;;;4935957;29;20542;-61
2022/07/08 09:57:01;;;;;;;6.70;2.73;;;;;;;;;;4936406;29;20489;-62
2022/07/08 09:59:28;;;;;;;4.70;2.03;;;;;;;;;;4936297;29;20445;-61
2022/07/08 10:01:56;;;;;;;7.63;2.87;;;;;;;;;;4935842;29;20489;-61
2022/07/08 10:04:24;;;;;;;3.27;2.43;;;;;;;;;;4936155;29;20622;-62
2022/07/08 10:06:51;;;;;;;5.97;2.27;;;;;;;;;;4936195;29;20450;-62
2022/07/08 10:09:19;;;;;;;5.47;1.90;;;;;;;;;;4935925;29;20454;-61
2022/07/08 10:11:48;;;;;;;3.10;2.43;;;;;;;;;;4935779;29;20449;-62
2022/07/08 10:14:15;;;;;;;6.40;2.47;;;;;;;;;;4936257;29;20449;-61
2022/07/08 10:16:43;;;;;;;7.53;2.70;;;;;;;;;;4935681;29;20486;-62
2022/07/08 10:19:13;;;;;;;5.70;2.53;;;;;;;;;;4936160;29;20461;-62
2022/07/08 10:21:42;;;;;;;7.97;2.53;;;;;;;;;;4936006;29;20798;-62
2022/07/08 10:24:11;;;;;;;8.83;2.60;;;;;;;;;;4936215;29;20457;-62
2022/07/08 10:26:40;;;;;;;4.67;2.50;;;;;;;;;;4936441;29;20931;-62
2022/07/08 10:29:10;;;;;;;4.70;2.70;;;;;;;;;;4936113;29;21011;-62
2022/07/08 10:31:43;;;;;;;10.73;2.53;;;;;;;;;;4937010;29;20446;-62
2022/07/08 10:34:11;;;;;;;5.43;2.30;;;;;;;;;;4935715;29;20532;-61
2022/07/08 10:36:43;;;;;;;8.00;2.30;;;;;;;;;;4936152;29;20536;-62
2022/07/08 10:39:13;;;;;;;10.53;2.80;;;;;;;;;;4935865;29;20958;-62
2022/07/08 10:41:40;;;;;;;3.20;2.07;;;;;;;;;;4936567;29;20451;-62
2022/07/08 10:44:08;;;;;;;3.23;2.60;;;;;;;;;;4936008;29;20453;-61
2022/07/08 10:46:36;;;;;;;5.43;2.83;;;;;;;;;;4935909;29;20477;-62
2022/07/08 10:49:04;;;;;;;10.23;3.50;;;;;;;;;;4935823;29;20529;-62
2022/07/08 10:51:45;;;;;;;6.17;3.37;;;;;;;;;;4935895;29;20446;-62
2022/07/08 10:54:25;;;;;;;5.10;2.70;;;;;;;;;;4936000;29;20481;-62
2022/07/08 10:56:54;;;;;;;7.07;3.00;;;;;;;;;;4935818;29;20948;-62
2022/07/08 10:59:23;;;;;;;9.10;2.70;;;;;;;;;;4936452;29;20457;-62
2022/07/08 11:01:51;;;;;;;5.13;2.93;;;;;;;;;;4939353;29;20504;-62
2022/07/08 11:04:22;;;;;;;5.97;2.73;;;;;;;;;;4938985;29;20450;-62
2022/07/08 11:06:50;;;;;;;6.30;2.93;;;;;;;;;;4939312;29;20457;-62
2022/07/08 11:09:17;;;;;;;8.10;3.20;;;;;;;;;;4938899;29;20448;-62
2022/07/08 11:11:46;;;;;;;7.70;3.23;;;;;;;;;;4939140;29;20480;-62
2022/07/08 11:14:13;;;;;;;5.40;3.27;;;;;;;;;;4939087;29;20465;-62
2022/07/08 11:16:42;;;;;;;9.87;3.17;;;;;;;;;;4939186;29;20457;-62
2022/07/08 11:19:10;;;;;;;10.13;3.23;;;;;;;;;;4938936;29;20878;-62
2022/07/08 11:21:37;;;;;;;2.90;2.60;;;;;;;;;;4939257;29;20446;-62
2022/07/08 11:24:05;;;;;;;6.67;2.83;;;;;;;;;;4938489;29;20467;-62
2022/07/08 11:26:32;;;;;;;5.20;2.67;;;;;;;;;;4938874;29;20885;-62
2022/07/08 11:28:59;;;;;;;5.90;2.57;;;;;;;;;;4938503;29;20457;-62
2022/07/08 11:31:27;;;;;;;4.37;2.93;;;;;;;;;;4938841;29;20489;-62
2022/07/08 11:33:55;;;;;;;3.27;2.10;;;;;;;;;;4938857;29;20800;-62
2022/07/08 11:36:23;;;;;;;7.57;2.70;;;;;;;;;;4938781;29;20816;-62
2022/07/08 11:38:51;;;;;;;5.83;2.30;;;;;;;;;;4938714;29;20483;-62
2022/07/08 11:41:20;;;;;;;3.53;2.57;;;;;;;;;;4938376;29;20441;-62
2022/07/08 11:43:48;;;;;;;3.30;2.20;;;;;;;;;;4938859;29;21000;-61
2022/07/08 11:46:16;;;;;;;3.33;2.47;;;;;;;;;;4938250;29;20535;-61
2022/07/08 11:48:43;;;;;;;4.70;1.80;;;;;;;;;;4938439;29;20553;-62
2022/07/08 11:51:13;;;;;;;7.43;2.03;;;;;;;;;;4938151;29;20538;-62
2022/07/08 11:53:40;;;;;;;2.93;2.40;;;;;;;;;;4938802;29;20469;-62
2022/07/08 11:56:08;;;;;;;5.63;2.30;;;;;;;;;;4938436;29;20541;-65
2022/07/08 11:58:35;;;;;;;4.37;2.60;;;;;;;;;;4938179;29;20573;-62
2022/07/08 12:01:03;;;;;;;5.90;2.57;;;;;;;;;;4938326;29;20453;-62
2022/07/08 12:03:30;;;;;;;4.53;2.30;;;;;;;;;;4938238;29;20884;-62
2022/07/08 12:05:57;;;;;;;6.63;2.00;;;;;;;;;;4938252;29;20516;-62
2022/07/08 12:08:26;;;;;;;8.10;2.77;;;;;;;;;;4937776;29;20486;-62
2022/07/08 12:10:53;;;;;;;5.23;3.40;;;;;;;;;;4937356;29;20482;-62
2022/07/08 12:13:20;;;;;;;7.77;3.87;;;;;;;;;;4938015;29;20538;-62
2022/07/08 12:15:48;;;;;;;7.60;3.40;;;;;;;;;;4937759;29;20891;-62
2022/07/08 12:18:15;;;;;;;10.23;3.07;;;;;;;;;;4937532;29;20582;-62
2022/07/08 12:20:42;;;;;;;5.70;2.33;;;;;;;;;;4937973;29;20447;-61
2022/07/08 12:23:12;;;;;;;7.20;2.97;;;;;;;;;;4937422;29;20470;-62
2022/07/08 12:25:50;;;;;;;6.47;2.70;;;;;;;;;;4937943;29;20933;-62
2022/07/08 12:28:22;;;;;;;4.20;2.60;;;;;;;;;;4937715;29;20454;-62
2022/07/08 12:30:49;;;;;;;6.43;3.33;;;;;;;;;;4938059;29;20791;-61
2022/07/08 12:33:25;;;;;;;5.17;2.67;;;;;;;;;;4937597;29;20447;-62
2022/07/08 12:35:52;;;;;;;7.00;2.83;;;;;;;;;;4937987;29;20439;-62
2022/07/08 12:38:23;;;;;;;4.03;2.60;;;;;;;;;;4938138;29;20840;-62
2022/07/08 12:40:52;;;;;;;4.60;2.63;;;;;;;;;;4938129;29;20785;-62
2022/07/08 12:43:19;;;;;;;3.37;2.50;;;;;;;;;;4937383;29;20526;-62
2022/07/08 12:45:46;;;;;;;5.90;2.80;;;;;;;;;;4937292;29;20449;-61
2022/07/08 12:48:14;;;;;;;4.60;2.53;;;;;;;;;;4937003;29;20465;-62
2022/07/08 12:50:43;;;;;;;8.73;2.50;;;;;;;;;;4937108;29;20809;-62
2022/07/08 12:53:10;;;;;;;7.07;3.13;;;;;;;;;;4937110;29;20830;-64
2022/07/08 12:55:39;;;;;;;2.53;2.33;;;;;;;;;;4936789;29;20481;-63
2022/07/08 12:58:08;;;;;;;6.23;3.73;;;;;;;;;;4937095;29;20475;-63
2022/07/08 13:00:35;;;;;;;5.47;2.60;;;;;;;;;;4936764;29;20456;-63
2022/07/08 13:03:02;;;;;;;4.97;2.77;;;;;;;;;;4937162;29;20853;-63
2022/07/08 13:05:29;;;;;;;5.40;2.80;;;;;;;;;;4937039;29;20449;-62
2022/07/08 13:07:56;;;;;;;6.27;2.97;;;;;;;;;;4937325;29;20447;-63
2022/07/08 13:10:24;;;;;;;6.60;2.73;;;;;;;;;;4936539;29;20533;-63
2022/07/08 13:12:51;;;;;;;2.53;2.30;;;;;;;;;;4936875;29;20530;-63
2022/07/08 13:15:20;;;;;;;9.50;3.10;;;;;;;;;;4937013;29;20449;-63
2022/07/08 13:17:47;;;;;;;9.43;3.17;;;;;;;;;;4944297;29;20491;-63
2022/07/08 13:20:14;;;;;;;11.97;3.10;;;;;;;;;;4954833;29;20973;-63
2022/07/08 13:22:41;;;;;;;5.23;3.10;;;;;;;;;;4954989;28;20801;-63
2022/07/08 13:25:09;;;;;;;3.30;2.87;;;;;;;;;;4955183;29;20545;-63
2022/07/08 13:27:36;;;;;;;3.97;2.70;;;;;;;;;;4955458;29;20482;-63
2022/07/08 13:30:04;;;;;;;8.33;2.90;;;;;;;;;;4955427;29;20534;-63
2022/07/08 13:32:33;;;;;;;7.20;3.20;;;;;;;;;;4955626;29;20505;-63
2022/07/08 13:35:00;;;;;;;11.67;2.80;;;;;;;;;;4955024;29;20526;-64
2022/07/08 13:37:27;;;;;;;4.30;2.53;;;;;;;;;;4955780;29;20534;-64
2022/07/08 13:39:54;;;;;;;5.93;2.60;;;;;;;;;;4955387;29;20553;-63
2022/07/08 13:42:21;;;;;;;6.97;2.60;;;;;;;;;;4955569;29;20537;-63
2022/07/08 13:44:49;;;;;;;5.83;3.03;;;;;;;;;;4954949;29;20526;-63
2022/07/08 13:47:16;;;;;;;5.23;2.43;;;;;;;;;;4955013;29;20542;-64
2022/07/08 13:49:45;;;;;;;4.77;2.73;;;;;;;;;;4955003;29;20457;-63
2022/07/08 13:52:12;;;;;;;4.90;2.43;;;;;;;;;;4954943;29;20484;-63
2022/07/08 13:54:39;;;;;;;5.90;2.60;;;;;;;;;;4954922;29;20897;-63
2022/07/08 13:57:06;;;;;;;2.73;2.53;;;;;;;;;;4955163;29;20453;-63
2022/07/08 13:59:34;;;;;;;6.27;2.90;;;;;;;;;;4955089;29;20479;-63
2022/07/08 14:02:01;;;;;;;6.03;2.93;;;;;;;;;;4955156;29;20451;-63
2022/07/08 14:04:28;;;;;;;14.73;2.60;;;;;;;;;;4954890;29;20958;-63
2022/07/08 14:06:57;;;;;;;3.40;2.50;;;;;;;;;;4954969;29;20452;-64
2022/07/08 14:09:24;;;;;;;8.03;2.53;;;;;;;;;;4954690;29;20944;-64
2022/07/08 14:11:51;;;;;;;7.23;2.67;;;;;;;;;;4955195;29;20516;-63
2022/07/08 14:14:18;;;;;;;7.40;2.17;;;;;;;;;;4955124;29;20804;-64
2022/07/08 14:16:46;;;;;;;4.97;2.23;;;;;;;;;;4955095;29;20453;-63
2022/07/08 14:19:13;;;;;;;6.00;2.80;;;;;;;;;;4954729;29;20587;-63
2022/07/08 14:21:40;;;;;;;5.60;2.63;;;;;;;;;;4955059;29;20883;-63
2022/07/08 14:24:09;;;;;;;4.53;2.90;;;;;;;;;;4955369;29;20551;-63
2022/07/08 14:26:36;;;;;;;8.93;2.87;;;;;;;;;;4954860;29;20533;-63
2022/07/08 14:29:03;;;;;;;6.30;2.30;;;;;;;;;;4954932;29;20841;-63
2022/07/08 14:31:31;;;;;;;5.53;2.70;;;;;;;;;;4954667;29;20484;-63
2022/07/08 14:33:58;;;;;;;6.00;3.03;;;;;;;;;;4957009;28;20527;-63
2022/07/08 14:36:25;;;;;;;5.53;2.47;;;;;;;;;;4958843;29;20450;-63
2022/07/08 14:38:52;;;;;;;10.40;2.67;;;;;;;;;;4958350;29;20487;-64
2022/07/08 14:41:21;;;;;;;7.33;3.10;;;;;;;;;;4958721;29;20538;-63
2022/07/08 14:43:48;;;;;;;9.23;3.23;;;;;;;;;;4959234;29;20602;-63
2022/07/08 14:46:15;;;;;;;3.77;2.30;;;;;;;;;;4958239;29;20484;-63